sensor_id;sensor_type;location;lat;lon;timestamp;P1;durP1;ratioP1;P2;durP2;ratioP2
15706;SDS011;7953;54.302;10.128;2023-05-07T00:00:22;17.33;;;10.90;;
15706;SDS011;7953;54.302;10.128;2023-05-07T00:02:50;17.80;;;11.50;;
15706;SDS011;7953;54.302;10.128;2023-05-07T00:05:17;16.97;;;11.50;;
15706;SDS011;7953;54.302;10.128;2023-05-07T00:07:45;20.63;;;11.80;;
15706;SDS011;7953;54.302;10.128;2023-05-07T00:10:12;19.90;;;11.37;;
15706;SDS011;7953;54.302;10.128;2023-05-07T00:12:39;17.27;;;11.23;;
15706;SDS011;7953;54.302;10.128;2023-05-07T00:15:07;15.33;;;11.57;;
15706;SDS011;7953;54.302;10.128;2023-05-07T00:17:34;15.80;;;11.40;;
15706;SDS011;7953;54.302;10.128;2023-05-07T00:20:02;14.13;;;11.13;;
15706;SDS011;7953;54.302;10.128;2023-05-07T00:22:30;14.03;;;10.43;;
15706;SDS011;7953;54.302;10.128;2023-05-07T00:24:57;14.73;;;10.70;;
15706;SDS011;7953;54.302;10.128;2023-05-07T00:27:25;14.80;;;10.27;;
15706;SDS011;7953;54.302;10.128;2023-05-07T00:29:52;15.83;;;11.17;;
15706;SDS011;7953;54.302;10.128;2023-05-07T00:32:18;13.87;;;10.40;;
15706;SDS011;7953;54.302;10.128;2023-05-07T00:34:45;15.23;;;11.03;;
15706;SDS011;7953;54.302;10.128;2023-05-07T00:37:13;16.20;;;11.80;;
15706;SDS011;7953;54.302;10.128;2023-05-07T00:39:40;14.03;;;10.63;;
15706;SDS011;7953;54.302;10.128;2023-05-07T00:42:07;17.03;;;11.60;;
15706;SDS011;7953;54.302;10.128;2023-05-07T00:44:34;13.87;;;10.27;;
15706;SDS011;7953;54.302;10.128;2023-05-07T00:47:01;13.23;;;11.50;;
15706;SDS011;7953;54.302;10.128;2023-05-07T00:49:32;15.30;;;11.50;;
15706;SDS011;7953;54.302;10.128;2023-05-07T00:52:05;16.47;;;11.20;;
15706;SDS011;7953;54.302;10.128;2023-05-07T00:54:33;18.27;;;12.13;;
15706;SDS011;7953;54.302;10.128;2023-05-07T00:57:01;14.63;;;11.17;;
15706;SDS011;7953;54.302;10.128;2023-05-07T00:59:29;17.37;;;11.17;;
15706;SDS011;7953;54.302;10.128;2023-05-07T01:01:57;17.37;;;11.20;;
15706;SDS011;7953;54.302;10.128;2023-05-07T01:04:25;13.17;;;10.27;;
15706;SDS011;7953;54.302;10.128;2023-05-07T01:06:52;15.63;;;11.00;;
15706;SDS011;7953;54.302;10.128;2023-05-07T01:09:21;14.43;;;10.57;;
15706;SDS011;7953;54.302;10.128;2023-05-07T01:11:50;13.90;;;10.87;;
15706;SDS011;7953;54.302;10.128;2023-05-07T01:14:18;13.57;;;10.97;;
15706;SDS011;7953;54.302;10.128;2023-05-07T01:16:45;14.67;;;11.43;;
15706;SDS011;7953;54.302;10.128;2023-05-07T01:19:12;12.10;;;10.80;;
15706;SDS011;7953;54.302;10.128;2023-05-07T01:21:44;16.23;;;10.63;;
15706;SDS011;7953;54.302;10.128;2023-05-07T01:24:15;14.00;;;11.10;;
15706;SDS011;7953;54.302;10.128;2023-05-07T01:26:42;13.67;;;11.43;;
15706;SDS011;7953;54.302;10.128;2023-05-07T01:29:10;14.23;;;10.87;;
15706;SDS011;7953;54.302;10.128;2023-05-07T01:31:37;14.97;;;11.33;;
15706;SDS011;7953;54.302;10.128;2023-05-07T01:34:05;12.57;;;11.10;;
15706;SDS011;7953;54.302;10.128;2023-05-07T01:36:34;14.50;;;11.67;;
15706;SDS011;7953;54.302;10.128;2023-05-07T01:39:03;15.13;;;11.20;;
15706;SDS011;7953;54.302;10.128;2023-05-07T01:41:32;15.27;;;11.97;;
15706;SDS011;7953;54.302;10.128;2023-05-07T01:44:00;12.40;;;10.93;;
15706;SDS011;7953;54.302;10.128;2023-05-07T01:46:29;17.33;;;11.63;;
15706;SDS011;7953;54.302;10.128;2023-05-07T01:48:57;14.67;;;11.50;;
15706;SDS011;7953;54.302;10.128;2023-05-07T01:51:24;13.40;;;10.07;;
15706;SDS011;7953;54.302;10.128;2023-05-07T01:53:51;13.30;;;11.90;;
15706;SDS011;7953;54.302;10.128;2023-05-07T01:56:19;13.10;;;10.90;;
15706;SDS011;7953;54.302;10.128;2023-05-07T01:58:47;13.53;;;11.93;;
15706;SDS011;7953;54.302;10.128;2023-05-07T02:01:16;16.93;;;12.10;;
15706;SDS011;7953;54.302;10.128;2023-05-07T02:03:43;15.63;;;12.03;;
15706;SDS011;7953;54.302;10.128;2023-05-07T02:06:10;13.60;;;11.13;;
15706;SDS011;7953;54.302;10.128;2023-05-07T02:08:37;13.53;;;10.67;;
15706;SDS011;7953;54.302;10.128;2023-05-07T02:11:04;14.13;;;11.10;;
15706;SDS011;7953;54.302;10.128;2023-05-07T02:13:31;12.43;;;11.13;;
15706;SDS011;7953;54.302;10.128;2023-05-07T02:16:00;14.00;;;11.27;;
15706;SDS011;7953;54.302;10.128;2023-05-07T02:18:27;14.93;;;12.17;;
15706;SDS011;7953;54.302;10.128;2023-05-07T02:20:54;12.83;;;11.30;;
15706;SDS011;7953;54.302;10.128;2023-05-07T02:23:21;12.43;;;11.13;;
15706;SDS011;7953;54.302;10.128;2023-05-07T02:25:48;14.97;;;11.17;;
15706;SDS011;7953;54.302;10.128;2023-05-07T02:28:15;13.97;;;11.33;;
15706;SDS011;7953;54.302;10.128;2023-05-07T02:30:42;13.90;;;10.53;;
15706;SDS011;7953;54.302;10.128;2023-05-07T02:33:10;13.17;;;10.20;;
15706;SDS011;7953;54.302;10.128;2023-05-07T02:35:38;14.83;;;12.37;;
15706;SDS011;7953;54.302;10.128;2023-05-07T02:38:05;14.90;;;11.63;;
15706;SDS011;7953;54.302;10.128;2023-05-07T02:40:32;13.37;;;11.67;;
15706;SDS011;7953;54.302;10.128;2023-05-07T02:43:03;11.80;;;10.60;;
15706;SDS011;7953;54.302;10.128;2023-05-07T02:45:30;12.23;;;9.70;;
15706;SDS011;7953;54.302;10.128;2023-05-07T02:47:57;11.27;;;10.03;;
15706;SDS011;7953;54.302;10.128;2023-05-07T02:50:25;11.77;;;10.37;;
15706;SDS011;7953;54.302;10.128;2023-05-07T02:52:52;12.47;;;10.30;;
15706;SDS011;7953;54.302;10.128;2023-05-07T02:55:19;10.53;;;9.43;;
15706;SDS011;7953;54.302;10.128;2023-05-07T02:57:46;12.30;;;10.37;;
15706;SDS011;7953;54.302;10.128;2023-05-07T03:00:13;13.30;;;9.93;;
15706;SDS011;7953;54.302;10.128;2023-05-07T03:02:42;12.63;;;10.17;;
15706;SDS011;7953;54.302;10.128;2023-05-07T03:05:08;11.30;;;10.10;;
15706;SDS011;7953;54.302;10.128;2023-05-07T03:07:37;10.13;;;9.03;;
15706;SDS011;7953;54.302;10.128;2023-05-07T03:10:04;10.90;;;9.80;;
15706;SDS011;7953;54.302;10.128;2023-05-07T03:12:31;11.30;;;10.13;;
15706;SDS011;7953;54.302;10.128;2023-05-07T03:14:58;10.43;;;9.33;;
15706;SDS011;7953;54.302;10.128;2023-05-07T03:17:25;11.03;;;9.43;;
15706;SDS011;7953;54.302;10.128;2023-05-07T03:19:52;11.10;;;9.63;;
15706;SDS011;7953;54.302;10.128;2023-05-07T03:22:19;12.53;;;10.10;;
15706;SDS011;7953;54.302;10.128;2023-05-07T03:24:47;11.90;;;9.73;;
15706;SDS011;7953;54.302;10.128;2023-05-07T03:27:14;12.83;;;9.33;;
15706;SDS011;7953;54.302;10.128;2023-05-07T03:29:41;10.80;;;9.33;;
15706;SDS011;7953;54.302;10.128;2023-05-07T03:32:08;12.60;;;10.00;;
15706;SDS011;7953;54.302;10.128;2023-05-07T03:34:35;10.40;;;9.03;;
15706;SDS011;7953;54.302;10.128;2023-05-07T03:37:02;11.00;;;9.43;;
15706;SDS011;7953;54.302;10.128;2023-05-07T03:39:29;11.80;;;9.63;;
15706;SDS011;7953;54.302;10.128;2023-05-07T03:41:58;10.20;;;9.20;;
15706;SDS011;7953;54.302;10.128;2023-05-07T03:44:26;10.93;;;9.73;;
15706;SDS011;7953;54.302;10.128;2023-05-07T03:46:52;10.87;;;9.43;;
15706;SDS011;7953;54.302;10.128;2023-05-07T03:49:20;11.33;;;9.83;;
15706;SDS011;7953;54.302;10.128;2023-05-07T03:51:47;11.13;;;8.90;;
15706;SDS011;7953;54.302;10.128;2023-05-07T03:54:14;11.70;;;9.77;;
15706;SDS011;7953;54.302;10.128;2023-05-07T03:56:40;10.07;;;9.07;;
15706;SDS011;7953;54.302;10.128;2023-05-07T03:59:09;11.00;;;9.90;;
15706;SDS011;7953;54.302;10.128;2023-05-07T04:01:35;10.03;;;9.00;;
15706;SDS011;7953;54.302;10.128;2023-05-07T04:04:02;9.70;;;8.80;;
15706;SDS011;7953;54.302;10.128;2023-05-07T04:06:29;10.20;;;9.20;;
15706;SDS011;7953;54.302;10.128;2023-05-07T04:08:56;11.60;;;9.13;;
15706;SDS011;7953;54.302;10.128;2023-05-07T04:11:23;10.03;;;9.03;;
15706;SDS011;7953;54.302;10.128;2023-05-07T04:13:50;9.87;;;8.87;;
15706;SDS011;7953;54.302;10.128;2023-05-07T04:16:19;10.53;;;9.37;;
15706;SDS011;7953;54.302;10.128;2023-05-07T04:18:45;9.50;;;8.50;;
15706;SDS011;7953;54.302;10.128;2023-05-07T04:21:15;11.63;;;8.47;;
15706;SDS011;7953;54.302;10.128;2023-05-07T04:23:43;10.63;;;9.53;;
15706;SDS011;7953;54.302;10.128;2023-05-07T04:26:10;10.07;;;8.97;;
15706;SDS011;7953;54.302;10.128;2023-05-07T04:28:37;9.37;;;7.83;;
15706;SDS011;7953;54.302;10.128;2023-05-07T04:31:04;9.13;;;8.23;;
15706;SDS011;7953;54.302;10.128;2023-05-07T04:33:33;8.90;;;7.97;;
15706;SDS011;7953;54.302;10.128;2023-05-07T04:36:01;9.10;;;8.30;;
15706;SDS011;7953;54.302;10.128;2023-05-07T04:38:28;11.03;;;8.53;;
15706;SDS011;7953;54.302;10.128;2023-05-07T04:40:55;9.80;;;8.43;;
15706;SDS011;7953;54.302;10.128;2023-05-07T04:43:22;9.33;;;8.43;;
15706;SDS011;7953;54.302;10.128;2023-05-07T04:45:50;12.33;;;9.40;;
15706;SDS011;7953;54.302;10.128;2023-05-07T04:48:17;8.23;;;7.43;;
15706;SDS011;7953;54.302;10.128;2023-05-07T04:50:48;10.50;;;8.63;;
15706;SDS011;7953;54.302;10.128;2023-05-07T04:53:15;9.20;;;8.30;;
15706;SDS011;7953;54.302;10.128;2023-05-07T04:55:42;8.87;;;8.07;;
15706;SDS011;7953;54.302;10.128;2023-05-07T04:58:10;8.43;;;7.63;;
15706;SDS011;7953;54.302;10.128;2023-05-07T05:00:37;10.00;;;8.53;;
15706;SDS011;7953;54.302;10.128;2023-05-07T05:03:04;9.53;;;8.57;;
15706;SDS011;7953;54.302;10.128;2023-05-07T05:05:32;9.60;;;8.60;;
15706;SDS011;7953;54.302;10.128;2023-05-07T05:08:00;9.30;;;8.37;;
15706;SDS011;7953;54.302;10.128;2023-05-07T05:10:27;9.50;;;8.43;;
15706;SDS011;7953;54.302;10.128;2023-05-07T05:12:54;9.33;;;8.23;;
15706;SDS011;7953;54.302;10.128;2023-05-07T05:15:21;10.07;;;8.37;;
15706;SDS011;7953;54.302;10.128;2023-05-07T05:17:48;10.10;;;9.20;;
15706;SDS011;7953;54.302;10.128;2023-05-07T05:20:15;11.30;;;8.47;;
15706;SDS011;7953;54.302;10.128;2023-05-07T05:22:42;11.33;;;8.70;;
15706;SDS011;7953;54.302;10.128;2023-05-07T05:25:11;10.97;;;9.40;;
15706;SDS011;7953;54.302;10.128;2023-05-07T05:27:37;12.43;;;10.43;;
15706;SDS011;7953;54.302;10.128;2023-05-07T05:30:05;18.27;;;9.33;;
15706;SDS011;7953;54.302;10.128;2023-05-07T05:32:32;12.63;;;11.43;;
15706;SDS011;7953;54.302;10.128;2023-05-07T05:34:59;10.73;;;9.53;;
15706;SDS011;7953;54.302;10.128;2023-05-07T05:37:26;10.20;;;8.97;;
15706;SDS011;7953;54.302;10.128;2023-05-07T05:39:55;10.13;;;8.53;;
15706;SDS011;7953;54.302;10.128;2023-05-07T05:42:23;12.43;;;9.13;;
15706;SDS011;7953;54.302;10.128;2023-05-07T05:44:50;10.37;;;7.87;;
15706;SDS011;7953;54.302;10.128;2023-05-07T05:47:17;10.30;;;8.33;;
15706;SDS011;7953;54.302;10.128;2023-05-07T05:49:44;10.77;;;8.23;;
15706;SDS011;7953;54.302;10.128;2023-05-07T05:52:11;9.23;;;8.37;;
15706;SDS011;7953;54.302;10.128;2023-05-07T05:54:38;10.50;;;8.40;;
15706;SDS011;7953;54.302;10.128;2023-05-07T05:57:05;11.93;;;8.27;;
15706;SDS011;7953;54.302;10.128;2023-05-07T05:59:34;10.93;;;8.87;;
15706;SDS011;7953;54.302;10.128;2023-05-07T06:02:00;9.00;;;8.10;;
15706;SDS011;7953;54.302;10.128;2023-05-07T06:04:28;10.13;;;8.43;;
15706;SDS011;7953;54.302;10.128;2023-05-07T06:06:55;11.50;;;9.13;;
15706;SDS011;7953;54.302;10.128;2023-05-07T06:09:21;18.73;;;14.33;;
15706;SDS011;7953;54.302;10.128;2023-05-07T06:11:48;10.90;;;8.60;;
15706;SDS011;7953;54.302;10.128;2023-05-07T06:14:15;9.53;;;7.87;;
15706;SDS011;7953;54.302;10.128;2023-05-07T06:16:43;9.03;;;8.13;;
15706;SDS011;7953;54.302;10.128;2023-05-07T06:19:10;9.10;;;8.00;;
15706;SDS011;7953;54.302;10.128;2023-05-07T06:21:38;10.83;;;7.73;;
15706;SDS011;7953;54.302;10.128;2023-05-07T06:24:05;11.17;;;8.83;;
15706;SDS011;7953;54.302;10.128;2023-05-07T06:26:35;8.90;;;7.23;;
15706;SDS011;7953;54.302;10.128;2023-05-07T06:29:05;8.33;;;7.53;;
15706;SDS011;7953;54.302;10.128;2023-05-07T06:31:32;9.60;;;7.73;;
15706;SDS011;7953;54.302;10.128;2023-05-07T06:34:00;11.53;;;7.37;;
15706;SDS011;7953;54.302;10.128;2023-05-07T06:36:27;8.20;;;7.37;;
15706;SDS011;7953;54.302;10.128;2023-05-07T06:38:54;7.67;;;6.87;;
15706;SDS011;7953;54.302;10.128;2023-05-07T06:41:21;8.90;;;6.90;;
15706;SDS011;7953;54.302;10.128;2023-05-07T06:43:48;7.70;;;6.90;;
15706;SDS011;7953;54.302;10.128;2023-05-07T06:46:15;7.70;;;6.83;;
15706;SDS011;7953;54.302;10.128;2023-05-07T06:48:42;8.20;;;7.40;;
15706;SDS011;7953;54.302;10.128;2023-05-07T06:51:10;7.90;;;7.10;;
15706;SDS011;7953;54.302;10.128;2023-05-07T06:53:37;10.13;;;6.73;;
15706;SDS011;7953;54.302;10.128;2023-05-07T06:56:04;8.17;;;6.90;;
15706;SDS011;7953;54.302;10.128;2023-05-07T06:58:31;8.63;;;7.27;;
15706;SDS011;7953;54.302;10.128;2023-05-07T07:00:58;8.93;;;7.20;;
15706;SDS011;7953;54.302;10.128;2023-05-07T07:03:25;8.40;;;6.73;;
15706;SDS011;7953;54.302;10.128;2023-05-07T07:05:52;6.87;;;6.17;;
15706;SDS011;7953;54.302;10.128;2023-05-07T07:08:21;9.03;;;7.40;;
15706;SDS011;7953;54.302;10.128;2023-05-07T07:10:48;7.00;;;6.40;;
15706;SDS011;7953;54.302;10.128;2023-05-07T07:13:15;8.13;;;7.13;;
15706;SDS011;7953;54.302;10.128;2023-05-07T07:15:42;6.83;;;6.17;;
15706;SDS011;7953;54.302;10.128;2023-05-07T07:18:10;7.00;;;6.30;;
15706;SDS011;7953;54.302;10.128;2023-05-07T07:20:37;7.47;;;6.77;;
15706;SDS011;7953;54.302;10.128;2023-05-07T07:23:03;6.63;;;6.03;;
15706;SDS011;7953;54.302;10.128;2023-05-07T07:25:32;6.97;;;5.87;;
15706;SDS011;7953;54.302;10.128;2023-05-07T07:27:59;7.53;;;6.60;;
15706;SDS011;7953;54.302;10.128;2023-05-07T07:30:25;9.13;;;7.53;;
15706;SDS011;7953;54.302;10.128;2023-05-07T07:32:52;7.07;;;6.33;;
15706;SDS011;7953;54.302;10.128;2023-05-07T07:35:20;6.70;;;5.70;;
15706;SDS011;7953;54.302;10.128;2023-05-07T07:37:47;9.90;;;6.47;;
15706;SDS011;7953;54.302;10.128;2023-05-07T07:40:15;6.03;;;5.43;;
15706;SDS011;7953;54.302;10.128;2023-05-07T07:42:44;6.43;;;5.83;;
15706;SDS011;7953;54.302;10.128;2023-05-07T07:45:11;6.33;;;5.73;;
15706;SDS011;7953;54.302;10.128;2023-05-07T07:47:38;7.37;;;6.00;;
15706;SDS011;7953;54.302;10.128;2023-05-07T07:50:06;8.63;;;7.73;;
15706;SDS011;7953;54.302;10.128;2023-05-07T07:52:33;11.27;;;7.90;;
15706;SDS011;7953;54.302;10.128;2023-05-07T07:55:00;5.30;;;4.80;;
15706;SDS011;7953;54.302;10.128;2023-05-07T07:57:28;5.43;;;4.60;;
15706;SDS011;7953;54.302;10.128;2023-05-07T07:59:56;5.10;;;4.60;;
15706;SDS011;7953;54.302;10.128;2023-05-07T08:02:23;4.67;;;4.20;;
15706;SDS011;7953;54.302;10.128;2023-05-07T08:04:50;4.50;;;4.07;;
15706;SDS011;7953;54.302;10.128;2023-05-07T08:07:17;5.03;;;4.53;;
15706;SDS011;7953;54.302;10.128;2023-05-07T08:09:45;5.60;;;4.77;;
15706;SDS011;7953;54.302;10.128;2023-05-07T08:12:13;9.57;;;5.33;;
15706;SDS011;7953;54.302;10.128;2023-05-07T08:14:39;6.33;;;5.07;;
15706;SDS011;7953;54.302;10.128;2023-05-07T08:17:08;5.20;;;4.67;;
15706;SDS011;7953;54.302;10.128;2023-05-07T08:19:35;6.23;;;5.63;;
15706;SDS011;7953;54.302;10.128;2023-05-07T08:22:02;6.50;;;5.60;;
15706;SDS011;7953;54.302;10.128;2023-05-07T08:24:30;7.93;;;6.20;;
15706;SDS011;7953;54.302;10.128;2023-05-07T08:26:57;7.27;;;5.73;;
15706;SDS011;7953;54.302;10.128;2023-05-07T08:29:24;8.93;;;5.63;;
15706;SDS011;7953;54.302;10.128;2023-05-07T08:31:51;6.10;;;5.50;;
15706;SDS011;7953;54.302;10.128;2023-05-07T08:34:19;7.53;;;5.00;;
15706;SDS011;7953;54.302;10.128;2023-05-07T08:36:48;6.60;;;5.90;;
15706;SDS011;7953;54.302;10.128;2023-05-07T08:39:15;5.43;;;4.87;;
15706;SDS011;7953;54.302;10.128;2023-05-07T08:41:43;6.23;;;5.23;;
15706;SDS011;7953;54.302;10.128;2023-05-07T08:44:12;5.93;;;5.13;;
15706;SDS011;7953;54.302;10.128;2023-05-07T08:46:40;10.30;;;5.73;;
15706;SDS011;7953;54.302;10.128;2023-05-07T08:49:08;5.53;;;4.97;;
15706;SDS011;7953;54.302;10.128;2023-05-07T08:51:37;10.13;;;5.03;;
15706;SDS011;7953;54.302;10.128;2023-05-07T08:54:04;6.17;;;5.10;;
15706;SDS011;7953;54.302;10.128;2023-05-07T08:56:32;4.80;;;4.40;;
15706;SDS011;7953;54.302;10.128;2023-05-07T08:58:59;5.07;;;4.57;;
15706;SDS011;7953;54.302;10.128;2023-05-07T09:01:26;6.03;;;4.53;;
15706;SDS011;7953;54.302;10.128;2023-05-07T09:03:53;5.20;;;4.27;;
15706;SDS011;7953;54.302;10.128;2023-05-07T09:06:20;5.13;;;4.70;;
15706;SDS011;7953;54.302;10.128;2023-05-07T09:08:51;6.33;;;5.63;;
15706;SDS011;7953;54.302;10.128;2023-05-07T09:11:19;5.97;;;5.37;;
15706;SDS011;7953;54.302;10.128;2023-05-07T09:13:47;8.20;;;6.03;;
15706;SDS011;7953;54.302;10.128;2023-05-07T09:16:15;5.20;;;4.70;;
15706;SDS011;7953;54.302;10.128;2023-05-07T09:18:42;7.90;;;4.93;;
15706;SDS011;7953;54.302;10.128;2023-05-07T09:21:10;6.83;;;4.47;;
15706;SDS011;7953;54.302;10.128;2023-05-07T09:23:37;4.20;;;3.80;;
15706;SDS011;7953;54.302;10.128;2023-05-07T09:26:06;5.53;;;4.13;;
15706;SDS011;7953;54.302;10.128;2023-05-07T09:28:37;5.10;;;4.60;;
15706;SDS011;7953;54.302;10.128;2023-05-07T09:31:05;9.30;;;4.97;;
15706;SDS011;7953;54.302;10.128;2023-05-07T09:33:32;6.33;;;4.50;;
15706;SDS011;7953;54.302;10.128;2023-05-07T09:36:01;4.40;;;4.03;;
15706;SDS011;7953;54.302;10.128;2023-05-07T09:38:30;4.67;;;4.23;;
15706;SDS011;7953;54.302;10.128;2023-05-07T09:41:08;4.40;;;4.03;;
15706;SDS011;7953;54.302;10.128;2023-05-07T09:43:36;4.57;;;4.03;;
15706;SDS011;7953;54.302;10.128;2023-05-07T09:46:06;4.40;;;3.80;;
15706;SDS011;7953;54.302;10.128;2023-05-07T09:48:37;5.23;;;4.73;;
15706;SDS011;7953;54.302;10.128;2023-05-07T09:51:06;5.20;;;4.23;;
15706;SDS011;7953;54.302;10.128;2023-05-07T09:53:39;7.00;;;4.53;;
15706;SDS011;7953;54.302;10.128;2023-05-07T09:56:09;5.57;;;4.70;;
15706;SDS011;7953;54.302;10.128;2023-05-07T09:58:36;4.13;;;3.80;;
15706;SDS011;7953;54.302;10.128;2023-05-07T10:01:04;4.37;;;3.97;;
15706;SDS011;7953;54.302;10.128;2023-05-07T10:03:32;6.30;;;3.80;;
15706;SDS011;7953;54.302;10.128;2023-05-07T10:06:01;4.47;;;3.97;;
15706;SDS011;7953;54.302;10.128;2023-05-07T10:08:30;7.20;;;5.33;;
15706;SDS011;7953;54.302;10.128;2023-05-07T10:10:57;4.20;;;3.73;;
15706;SDS011;7953;54.302;10.128;2023-05-07T10:13:25;7.13;;;4.30;;
15706;SDS011;7953;54.302;10.128;2023-05-07T10:15:53;4.60;;;4.20;;
15706;SDS011;7953;54.302;10.128;2023-05-07T10:18:21;4.37;;;3.63;;
15706;SDS011;7953;54.302;10.128;2023-05-07T10:20:54;3.73;;;3.40;;
15706;SDS011;7953;54.302;10.128;2023-05-07T10:23:26;4.87;;;3.63;;
15706;SDS011;7953;54.302;10.128;2023-05-07T10:25:54;4.83;;;4.00;;
15706;SDS011;7953;54.302;10.128;2023-05-07T10:28:22;4.83;;;4.27;;
15706;SDS011;7953;54.302;10.128;2023-05-07T10:30:55;5.07;;;3.67;;
15706;SDS011;7953;54.302;10.128;2023-05-07T10:33:31;5.93;;;3.73;;
15706;SDS011;7953;54.302;10.128;2023-05-07T10:35:59;4.17;;;3.60;;
15706;SDS011;7953;54.302;10.128;2023-05-07T12:55:12;2.13;;;1.80;;
15706;SDS011;7953;54.302;10.128;2023-05-07T12:57:43;3.13;;;1.93;;
15706;SDS011;7953;54.302;10.128;2023-05-07T13:00:13;3.07;;;1.80;;
15706;SDS011;7953;54.302;10.128;2023-05-07T13:02:42;2.70;;;1.60;;
15706;SDS011;7953;54.302;10.128;2023-05-07T13:05:09;2.67;;;1.67;;
15706;SDS011;7953;54.302;10.128;2023-05-07T13:30:50;2.90;;;2.30;;
15706;SDS011;7953;54.302;10.128;2023-05-07T13:33:17;3.03;;;2.10;;
15706;SDS011;7953;54.302;10.128;2023-05-07T13:35:44;2.03;;;1.83;;
15706;SDS011;7953;54.302;10.128;2023-05-07T13:38:11;3.60;;;2.10;;
15706;SDS011;7953;54.302;10.128;2023-05-07T13:40:40;2.93;;;2.07;;
15706;SDS011;7953;54.302;10.128;2023-05-07T13:43:07;2.43;;;1.80;;
15706;SDS011;7953;54.302;10.128;2023-05-07T13:45:35;2.87;;;1.90;;
15706;SDS011;7953;54.302;10.128;2023-05-07T13:48:04;2.70;;;1.93;;
15706;SDS011;7953;54.302;10.128;2023-05-07T13:50:31;4.60;;;1.93;;
15706;SDS011;7953;54.302;10.128;2023-05-07T13:52:57;2.00;;;1.73;;
15706;SDS011;7953;54.302;10.128;2023-05-07T13:55:24;2.33;;;1.77;;
15706;SDS011;7953;54.302;10.128;2023-05-07T13:57:55;1.70;;;1.60;;
15706;SDS011;7953;54.302;10.128;2023-05-07T14:00:23;2.33;;;1.50;;
15706;SDS011;7953;54.302;10.128;2023-05-07T14:02:50;3.20;;;1.90;;
15706;SDS011;7953;54.302;10.128;2023-05-07T14:05:18;1.93;;;1.70;;
15706;SDS011;7953;54.302;10.128;2023-05-07T14:07:45;1.90;;;1.50;;
15706;SDS011;7953;54.302;10.128;2023-05-07T14:10:14;1.90;;;1.70;;
15706;SDS011;7953;54.302;10.128;2023-05-07T14:12:40;1.80;;;1.70;;
15706;SDS011;7953;54.302;10.128;2023-05-07T14:15:08;3.13;;;1.80;;
15706;SDS011;7953;54.302;10.128;2023-05-07T14:17:35;1.80;;;1.70;;
15706;SDS011;7953;54.302;10.128;2023-05-07T14:20:02;3.57;;;2.00;;
15706;SDS011;7953;54.302;10.128;2023-05-07T14:22:32;1.50;;;1.40;;
15706;SDS011;7953;54.302;10.128;2023-05-07T14:24:59;2.50;;;1.60;;
15706;SDS011;7953;54.302;10.128;2023-05-07T14:27:26;3.67;;;1.90;;
15706;SDS011;7953;54.302;10.128;2023-05-07T14:29:54;2.97;;;1.60;;
15706;SDS011;7953;54.302;10.128;2023-05-07T14:32:21;2.10;;;1.90;;
15706;SDS011;7953;54.302;10.128;2023-05-07T14:34:48;2.40;;;1.77;;
15706;SDS011;7953;54.302;10.128;2023-05-07T14:37:15;1.63;;;1.40;;
15706;SDS011;7953;54.302;10.128;2023-05-07T14:39:46;2.97;;;1.40;;
15706;SDS011;7953;54.302;10.128;2023-05-07T14:42:13;2.23;;;2.03;;
15706;SDS011;7953;54.302;10.128;2023-05-07T14:44:39;2.57;;;1.87;;
15706;SDS011;7953;54.302;10.128;2023-05-07T14:47:07;5.63;;;2.00;;
15706;SDS011;7953;54.302;10.128;2023-05-07T14:49:34;3.27;;;2.03;;
15706;SDS011;7953;54.302;10.128;2023-05-07T14:52:01;1.63;;;1.53;;
15706;SDS011;7953;54.302;10.128;2023-05-07T14:54:28;1.70;;;1.60;;
15706;SDS011;7953;54.302;10.128;2023-05-07T14:56:56;2.93;;;1.50;;
15706;SDS011;7953;54.302;10.128;2023-05-07T14:59:23;3.17;;;1.67;;
15706;SDS011;7953;54.302;10.128;2023-05-07T15:01:50;2.07;;;1.80;;
15706;SDS011;7953;54.302;10.128;2023-05-07T15:04:17;4.90;;;2.37;;
15706;SDS011;7953;54.302;10.128;2023-05-07T15:06:44;1.70;;;1.50;;
15706;SDS011;7953;54.302;10.128;2023-05-07T15:09:11;1.90;;;1.70;;
15706;SDS011;7953;54.302;10.128;2023-05-07T15:11:38;2.20;;;2.00;;
15706;SDS011;7953;54.302;10.128;2023-05-07T15:14:06;1.93;;;1.70;;
15706;SDS011;7953;54.302;10.128;2023-05-07T15:16:33;2.10;;;1.87;;
15706;SDS011;7953;54.302;10.128;2023-05-07T15:19:00;1.83;;;1.70;;
15706;SDS011;7953;54.302;10.128;2023-05-07T15:21:27;2.33;;;1.60;;
15706;SDS011;7953;54.302;10.128;2023-05-07T15:23:55;2.23;;;1.90;;
15706;SDS011;7953;54.302;10.128;2023-05-07T15:26:22;1.97;;;1.50;;
15706;SDS011;7953;54.302;10.128;2023-05-07T15:28:49;1.80;;;1.63;;
15706;SDS011;7953;54.302;10.128;2023-05-07T15:31:18;1.90;;;1.80;;
15706;SDS011;7953;54.302;10.128;2023-05-07T15:33:45;4.10;;;2.37;;
15706;SDS011;7953;54.302;10.128;2023-05-07T15:36:12;2.50;;;1.70;;
15706;SDS011;7953;54.302;10.128;2023-05-07T15:38:39;2.00;;;1.70;;
15706;SDS011;7953;54.302;10.128;2023-05-07T15:41:06;2.53;;;1.73;;
15706;SDS011;7953;54.302;10.128;2023-05-07T15:43:34;2.63;;;1.70;;
15706;SDS011;7953;54.302;10.128;2023-05-07T15:46:10;1.93;;;1.73;;
15706;SDS011;7953;54.302;10.128;2023-05-07T15:48:39;2.33;;;1.80;;
15706;SDS011;7953;54.302;10.128;2023-05-07T15:51:05;2.03;;;1.60;;
15706;SDS011;7953;54.302;10.128;2023-05-07T15:53:33;2.27;;;2.00;;
15706;SDS011;7953;54.302;10.128;2023-05-07T15:56:01;2.80;;;1.80;;
15706;SDS011;7953;54.302;10.128;2023-05-07T15:58:28;2.00;;;1.90;;
15706;SDS011;7953;54.302;10.128;2023-05-07T16:00:55;2.73;;;2.03;;
15706;SDS011;7953;54.302;10.128;2023-05-07T16:03:22;2.00;;;1.67;;
15706;SDS011;7953;54.302;10.128;2023-05-07T16:05:50;2.10;;;1.90;;
15706;SDS011;7953;54.302;10.128;2023-05-07T16:08:17;2.67;;;1.93;;
15706;SDS011;7953;54.302;10.128;2023-05-07T16:10:45;1.70;;;1.60;;
15706;SDS011;7953;54.302;10.128;2023-05-07T16:13:12;2.73;;;2.00;;
15706;SDS011;7953;54.302;10.128;2023-05-07T16:15:39;2.00;;;1.90;;
15706;SDS011;7953;54.302;10.128;2023-05-07T16:18:05;2.20;;;2.00;;
15706;SDS011;7953;54.302;10.128;2023-05-07T16:20:32;3.10;;;2.10;;
15706;SDS011;7953;54.302;10.128;2023-05-07T16:23:01;3.27;;;2.13;;
15706;SDS011;7953;54.302;10.128;2023-05-07T16:25:28;2.60;;;2.40;;
15706;SDS011;7953;54.302;10.128;2023-05-07T16:27:55;2.50;;;2.30;;
15706;SDS011;7953;54.302;10.128;2023-05-07T16:30:22;3.70;;;1.83;;
15706;SDS011;7953;54.302;10.128;2023-05-07T16:32:49;2.07;;;1.87;;
15706;SDS011;7953;54.302;10.128;2023-05-07T16:35:16;1.90;;;1.73;;
15706;SDS011;7953;54.302;10.128;2023-05-07T16:37:43;2.87;;;1.60;;
15706;SDS011;7953;54.302;10.128;2023-05-07T16:40:12;2.97;;;1.93;;
15706;SDS011;7953;54.302;10.128;2023-05-07T16:42:38;2.40;;;1.30;;
15706;SDS011;7953;54.302;10.128;2023-05-07T16:45:06;6.30;;;2.83;;
15706;SDS011;7953;54.302;10.128;2023-05-07T16:47:33;5.43;;;3.53;;
15706;SDS011;7953;54.302;10.128;2023-05-07T16:50:00;3.80;;;3.20;;
15706;SDS011;7953;54.302;10.128;2023-05-07T16:52:29;6.57;;;3.63;;
15706;SDS011;7953;54.302;10.128;2023-05-07T16:54:57;4.27;;;3.03;;
15706;SDS011;7953;54.302;10.128;2023-05-07T16:57:27;6.30;;;3.53;;
15706;SDS011;7953;54.302;10.128;2023-05-07T16:59:54;4.43;;;3.57;;
15706;SDS011;7953;54.302;10.128;2023-05-07T17:02:23;4.97;;;3.83;;
15706;SDS011;7953;54.302;10.128;2023-05-07T17:04:49;4.33;;;3.67;;
15706;SDS011;7953;54.302;10.128;2023-05-07T17:07:16;4.53;;;4.07;;
15706;SDS011;7953;54.302;10.128;2023-05-07T17:09:43;5.23;;;3.70;;
15706;SDS011;7953;54.302;10.128;2023-05-07T17:12:10;5.17;;;3.80;;
15706;SDS011;7953;54.302;10.128;2023-05-07T17:14:38;5.63;;;3.57;;
15706;SDS011;7953;54.302;10.128;2023-05-07T17:17:05;7.80;;;4.43;;
15706;SDS011;7953;54.302;10.128;2023-05-07T17:19:32;6.73;;;3.63;;
15706;SDS011;7953;54.302;10.128;2023-05-07T17:22:02;5.47;;;3.80;;